sensor_id;sensor_type;location;lat;lon;timestamp;pressure;altitude;pressure_sealevel;temperature;humidity
35989;BME280;22064;42.672;23.282;2023-03-05T00:01:13;94190.31;;;5.51;100.00
35989;BME280;22064;42.672;23.282;2023-03-05T00:03:40;94189.28;;;5.52;100.00
35989;BME280;22064;42.672;23.282;2023-03-05T00:06:06;94189.78;;;5.61;100.00
35989;BME280;22064;42.672;23.282;2023-03-05T00:08:32;94186.31;;;5.67;100.00
35989;BME280;22064;42.672;23.282;2023-03-05T00:11:01;94178.09;;;5.59;100.00
35989;BME280;22064;42.672;23.282;2023-03-05T00:13:27;94175.84;;;5.62;100.00
35989;BME280;22064;42.672;23.282;2023-03-05T00:15:53;94167.50;;;5.60;100.00
35989;BME280;22064;42.672;23.282;2023-03-05T00:18:20;94170.00;;;5.67;100.00
35989;BME280;22064;42.672;23.282;2023-03-05T00:20:46;94164.13;;;5.48;100.00
35989;BME280;22064;42.672;23.282;2023-03-05T00:23:12;94169.56;;;5.58;100.00
35989;BME280;22064;42.672;23.282;2023-03-05T00:25:38;94165.84;;;5.66;100.00
35989;BME280;22064;42.672;23.282;2023-03-05T00:28:06;94160.22;;;5.57;100.00
35989;BME280;22064;42.672;23.282;2023-03-05T00:30:33;94175.25;;;5.60;100.00
35989;BME280;22064;42.672;23.282;2023-03-05T00:32:59;94165.94;;;5.59;100.00
35989;BME280;22064;42.672;23.282;2023-03-05T00:35:27;94159.78;;;5.48;100.00
35989;BME280;22064;42.672;23.282;2023-03-05T00:37:53;94157.63;;;5.45;100.00
35989;BME280;22064;42.672;23.282;2023-03-05T00:40:19;94156.81;;;5.45;100.00
35989;BME280;22064;42.672;23.282;2023-03-05T00:42:45;94152.47;;;5.57;100.00
35989;BME280;22064;42.672;23.282;2023-03-05T00:45:11;94147.63;;;5.61;100.00
35989;BME280;22064;42.672;23.282;2023-03-05T00:47:38;94145.97;;;5.54;100.00
35989;BME280;22064;42.672;23.282;2023-03-05T00:50:05;94141.75;;;5.42;100.00
35989;BME280;22064;42.672;23.282;2023-03-05T00:52:31;94144.34;;;5.42;100.00
35989;BME280;22064;42.672;23.282;2023-03-05T00:54:58;94149.88;;;5.45;100.00
35989;BME280;22064;42.672;23.282;2023-03-05T00:57:24;94135.72;;;5.48;100.00
35989;BME280;22064;42.672;23.282;2023-03-05T00:59:50;94125.94;;;5.38;100.00
35989;BME280;22064;42.672;23.282;2023-03-05T01:02:16;94138.06;;;5.38;100.00
35989;BME280;22064;42.672;23.282;2023-03-05T01:04:41;94131.88;;;5.39;100.00
35989;BME280;22064;42.672;23.282;2023-03-05T01:07:10;94127.28;;;5.41;100.00
35989;BME280;22064;42.672;23.282;2023-03-05T01:09:37;94138.50;;;5.35;100.00
35989;BME280;22064;42.672;23.282;2023-03-05T01:12:02;94124.03;;;5.33;100.00
35989;BME280;22064;42.672;23.282;2023-03-05T01:14:28;94126.38;;;5.35;100.00
35989;BME280;22064;42.672;23.282;2023-03-05T01:16:55;94124.91;;;5.27;100.00
35989;BME280;22064;42.672;23.282;2023-03-05T01:19:21;94118.44;;;5.37;100.00
35989;BME280;22064;42.672;23.282;2023-03-05T01:21:47;94130.91;;;5.40;100.00
35989;BME280;22064;42.672;23.282;2023-03-05T01:24:13;94126.94;;;5.37;100.00
35989;BME280;22064;42.672;23.282;2023-03-05T01:26:38;94119.09;;;5.44;100.00
35989;BME280;22064;42.672;23.282;2023-03-05T01:29:04;94128.31;;;5.40;100.00
35989;BME280;22064;42.672;23.282;2023-03-05T01:31:30;94112.81;;;5.40;100.00
35989;BME280;22064;42.672;23.282;2023-03-05T01:33:56;94120.78;;;5.38;100.00
35989;BME280;22064;42.672;23.282;2023-03-05T01:36:24;94109.09;;;5.36;100.00
35989;BME280;22064;42.672;23.282;2023-03-05T01:38:50;94110.88;;;5.35;100.00
35989;BME280;22064;42.672;23.282;2023-03-05T01:41:17;94117.09;;;5.46;100.00
35989;BME280;22064;42.672;23.282;2023-03-05T01:43:45;94112.81;;;5.40;100.00
35989;BME280;22064;42.672;23.282;2023-03-05T01:54:14;94119.22;;;5.37;100.00
35989;BME280;22064;42.672;23.282;2023-03-05T01:56:42;94116.72;;;5.30;100.00
35989;BME280;22064;42.672;23.282;2023-03-05T01:59:09;94116.84;;;5.36;100.00
35989;BME280;22064;42.672;23.282;2023-03-05T02:01:45;94120.88;;;5.31;100.00
35989;BME280;22064;42.672;23.282;2023-03-05T02:04:15;94114.69;;;5.32;100.00
35989;BME280;22064;42.672;23.282;2023-03-05T02:06:42;94105.81;;;5.28;100.00
35989;BME280;22064;42.672;23.282;2023-03-05T02:09:08;94120.28;;;5.29;100.00
35989;BME280;22064;42.672;23.282;2023-03-05T02:11:35;94119.75;;;5.27;100.00
35989;BME280;22064;42.672;23.282;2023-03-05T02:14:03;94111.00;;;5.28;100.00
35989;BME280;22064;42.672;23.282;2023-03-05T02:16:29;94114.81;;;5.38;100.00
35989;BME280;22064;42.672;23.282;2023-03-05T02:19:08;94116.38;;;5.39;100.00
35989;BME280;22064;42.672;23.282;2023-03-05T02:21:45;94124.72;;;5.41;100.00
35989;BME280;22064;42.672;23.282;2023-03-05T02:24:17;94120.09;;;5.31;100.00
35989;BME280;22064;42.672;23.282;2023-03-05T02:26:46;94122.53;;;5.26;100.00
35989;BME280;22064;42.672;23.282;2023-03-05T02:29:17;94120.56;;;5.40;100.00
35989;BME280;22064;42.672;23.282;2023-03-05T02:31:43;94123.00;;;5.35;100.00
35989;BME280;22064;42.672;23.282;2023-03-05T02:34:09;94125.78;;;5.21;100.00
35989;BME280;22064;42.672;23.282;2023-03-05T02:36:35;94122.63;;;5.19;100.00
35989;BME280;22064;42.672;23.282;2023-03-05T02:39:02;94122.28;;;5.16;100.00
35989;BME280;22064;42.672;23.282;2023-03-05T02:41:28;94115.22;;;5.11;100.00
35989;BME280;22064;42.672;23.282;2023-03-05T02:43:56;94125.41;;;5.06;100.00
35989;BME280;22064;42.672;23.282;2023-03-05T02:46:22;94108.59;;;5.15;100.00
35989;BME280;22064;42.672;23.282;2023-03-05T02:48:48;94125.72;;;4.98;100.00
35989;BME280;22064;42.672;23.282;2023-03-05T02:51:14;94126.44;;;5.05;100.00
35989;BME280;22064;42.672;23.282;2023-03-05T02:53:42;94137.34;;;4.89;100.00
35989;BME280;22064;42.672;23.282;2023-03-05T02:56:09;94127.16;;;4.94;100.00
35989;BME280;22064;42.672;23.282;2023-03-05T02:58:35;94123.75;;;4.81;100.00
35989;BME280;22064;42.672;23.282;2023-03-05T03:01:01;94120.81;;;4.78;100.00
35989;BME280;22064;42.672;23.282;2023-03-05T03:03:27;94126.41;;;4.75;100.00
35989;BME280;22064;42.672;23.282;2023-03-05T03:05:53;94130.78;;;4.74;100.00
35989;BME280;22064;42.672;23.282;2023-03-05T03:08:19;94135.09;;;4.80;100.00
35989;BME280;22064;42.672;23.282;2023-03-05T03:10:45;94139.66;;;4.78;100.00
35989;BME280;22064;42.672;23.282;2023-03-05T03:13:11;94138.97;;;4.71;100.00
35989;BME280;22064;42.672;23.282;2023-03-05T03:15:37;94148.25;;;4.72;100.00
35989;BME280;22064;42.672;23.282;2023-03-05T03:18:03;94141.47;;;4.78;100.00
35989;BME280;22064;42.672;23.282;2023-03-05T03:20:29;94131.28;;;4.83;100.00
35989;BME280;22064;42.672;23.282;2023-03-05T03:22:55;94138.22;;;4.82;100.00
35989;BME280;22064;42.672;23.282;2023-03-05T03:25:21;94137.94;;;4.72;100.00
35989;BME280;22064;42.672;23.282;2023-03-05T03:27:50;94100.66;;;4.56;100.00
35989;BME280;22064;42.672;23.282;2023-03-05T03:30:17;94132.78;;;4.72;100.00
35989;BME280;22064;42.672;23.282;2023-03-05T03:32:43;94133.31;;;4.62;100.00
35989;BME280;22064;42.672;23.282;2023-03-05T03:35:10;94138.13;;;4.59;100.00
35989;BME280;22064;42.672;23.282;2023-03-05T03:37:36;94152.16;;;4.63;100.00
35989;BME280;22064;42.672;23.282;2023-03-05T03:40:03;94135.97;;;4.56;100.00
35989;BME280;22064;42.672;23.282;2023-03-05T03:42:30;94129.38;;;4.60;100.00
35989;BME280;22064;42.672;23.282;2023-03-05T03:44:56;94140.69;;;4.59;100.00
35989;BME280;22064;42.672;23.282;2023-03-05T03:47:22;94146.63;;;4.59;100.00
35989;BME280;22064;42.672;23.282;2023-03-05T03:49:52;94135.97;;;4.56;100.00
35989;BME280;22064;42.672;23.282;2023-03-05T03:52:19;94133.03;;;4.52;100.00
35989;BME280;22064;42.672;23.282;2023-03-05T03:54:45;94142.78;;;4.50;100.00
35989;BME280;22064;42.672;23.282;2023-03-05T03:57:11;94144.22;;;4.46;100.00
35989;BME280;22064;42.672;23.282;2023-03-05T03:59:36;94143.44;;;4.46;100.00
35989;BME280;22064;42.672;23.282;2023-03-05T04:02:02;94160.75;;;4.38;100.00
35989;BME280;22064;42.672;23.282;2023-03-05T04:04:28;94138.84;;;4.29;100.00
35989;BME280;22064;42.672;23.282;2023-03-05T04:06:55;94152.22;;;4.38;100.00
35989;BME280;22064;42.672;23.282;2023-03-05T04:09:21;94144.34;;;4.33;100.00
35989;BME280;22064;42.672;23.282;2023-03-05T04:11:47;94149.56;;;4.26;100.00
35989;BME280;22064;42.672;23.282;2023-03-05T04:14:13;94151.72;;;4.29;100.00
35989;BME280;22064;42.672;23.282;2023-03-05T04:16:38;94149.72;;;4.31;100.00
35989;BME280;22064;42.672;23.282;2023-03-05T04:19:04;94141.56;;;4.34;100.00
35989;BME280;22064;42.672;23.282;2023-03-05T04:21:30;94155.66;;;4.32;100.00
35989;BME280;22064;42.672;23.282;2023-03-05T04:23:56;94147.50;;;4.35;100.00
35989;BME280;22064;42.672;23.282;2023-03-05T04:26:22;94155.06;;;4.30;100.00
35989;BME280;22064;42.672;23.282;2023-03-05T04:28:48;94157.81;;;4.35;100.00
35989;BME280;22064;42.672;23.282;2023-03-05T04:31:14;94148.50;;;4.34;100.00
35989;BME280;22064;42.672;23.282;2023-03-05T04:33:40;94149.72;;;4.31;100.00
35989;BME280;22064;42.672;23.282;2023-03-05T04:36:06;94141.72;;;4.39;100.00
35989;BME280;22064;42.672;23.282;2023-03-05T04:38:32;94141.56;;;4.34;100.00
35989;BME280;22064;42.672;23.282;2023-03-05T04:40:57;94145.59;;;4.49;100.00
35989;BME280;22064;42.672;23.282;2023-03-05T04:43:23;94142.56;;;4.52;100.00
35989;BME280;22064;42.672;23.282;2023-03-05T04:45:49;94146.38;;;4.49;100.00
35989;BME280;22064;42.672;23.282;2023-03-05T04:48:15;94128.00;;;4.39;100.00
35989;BME280;22064;42.672;23.282;2023-03-05T04:50:41;94137.41;;;4.52;100.00
35989;BME280;22064;42.672;23.282;2023-03-05T04:53:07;94142.78;;;4.50;100.00
35989;BME280;22064;42.672;23.282;2023-03-05T04:55:33;94132.97;;;4.40;100.00
35989;BME280;22064;42.672;23.282;2023-03-05T04:57:59;94136.19;;;4.36;100.00
35989;BME280;22064;42.672;23.282;2023-03-05T05:00:25;94139.69;;;4.23;100.00
35989;BME280;22064;42.672;23.282;2023-03-05T05:02:51;94135.34;;;4.24;100.00
35989;BME280;22064;42.672;23.282;2023-03-05T05:05:20;94132.63;;;4.37;100.00
35989;BME280;22064;42.672;23.282;2023-03-05T05:07:46;94134.69;;;4.28;100.00
35989;BME280;22064;42.672;23.282;2023-03-05T05:10:13;94151.66;;;4.18;100.00
35989;BME280;22064;42.672;23.282;2023-03-05T05:12:40;94143.84;;;4.24;100.00
35989;BME280;22064;42.672;23.282;2023-03-05T05:15:07;94141.84;;;4.26;100.00
35989;BME280;22064;42.672;23.282;2023-03-05T05:17:33;94143.44;;;4.27;100.00
35989;BME280;22064;42.672;23.282;2023-03-05T05:20:00;94152.72;;;4.28;100.00
35989;BME280;22064;42.672;23.282;2023-03-05T05:22:28;94142.56;;;4.15;100.00
35989;BME280;22064;42.672;23.282;2023-03-05T05:24:54;94140.53;;;4.17;100.00
35989;BME280;22064;42.672;23.282;2023-03-05T05:27:21;94145.78;;;4.29;100.00
35989;BME280;22064;42.672;23.282;2023-03-05T05:29:47;94146.28;;;4.37;100.00
35989;BME280;22064;42.672;23.282;2023-03-05T05:32:19;94146.72;;;4.53;100.00
35989;BME280;22064;42.672;23.282;2023-03-05T05:34:45;94144.84;;;4.42;100.00
35989;BME280;22064;42.672;23.282;2023-03-05T05:37:11;94148.28;;;4.35;100.00
35989;BME280;22064;42.672;23.282;2023-03-05T05:39:37;94150.66;;;4.37;100.00
35989;BME280;22064;42.672;23.282;2023-03-05T05:42:03;94151.88;;;4.34;100.00
35989;BME280;22064;42.672;23.282;2023-03-05T05:44:29;94154.88;;;4.50;100.00
35989;BME280;22064;42.672;23.282;2023-03-05T05:46:55;94156.31;;;4.46;100.00
35989;BME280;22064;42.672;23.282;2023-03-05T05:49:21;94150.22;;;4.40;100.00
35989;BME280;22064;42.672;23.282;2023-03-05T05:51:47;94156.25;;;4.52;100.00
35989;BME280;22064;42.672;23.282;2023-03-05T05:54:14;94160.75;;;4.57;100.00
35989;BME280;22064;42.672;23.282;2023-03-05T05:56:40;94159.59;;;4.53;100.00
35989;BME280;22064;42.672;23.282;2023-03-05T05:59:07;94158.88;;;4.64;100.00
35989;BME280;22064;42.672;23.282;2023-03-05T06:01:34;94165.19;;;4.50;100.00
35989;BME280;22064;42.672;23.282;2023-03-05T06:04:00;94164.06;;;4.46;100.00
35989;BME280;22064;42.672;23.282;2023-03-05T06:06:27;94173.28;;;4.72;100.00
35989;BME280;22064;42.672;23.282;2023-03-05T06:08:54;94179.91;;;4.79;100.00
35989;BME280;22064;42.672;23.282;2023-03-05T06:11:20;94183.25;;;4.68;100.00
35989;BME280;22064;42.672;23.282;2023-03-05T06:13:47;94185.06;;;4.79;100.00
35989;BME280;22064;42.672;23.282;2023-03-05T06:16:16;94178.16;;;4.61;100.00
35989;BME280;22064;42.672;23.282;2023-03-05T06:18:42;94178.50;;;4.65;100.00
35989;BME280;22064;42.672;23.282;2023-03-05T06:21:13;94166.25;;;4.60;100.00
35989;BME280;22064;42.672;23.282;2023-03-05T06:23:40;94176.69;;;4.84;100.00
35989;BME280;22064;42.672;23.282;2023-03-05T06:26:08;94185.50;;;4.95;100.00
35989;BME280;22064;42.672;23.282;2023-03-05T06:28:35;94180.75;;;4.92;100.00
35989;BME280;22064;42.672;23.282;2023-03-05T06:31:15;94184.94;;;4.74;100.00
35989;BME280;22064;42.672;23.282;2023-03-05T06:33:41;94191.31;;;4.72;100.00
35989;BME280;22064;42.672;23.282;2023-03-05T06:36:10;94193.81;;;4.78;100.00
35989;BME280;22064;42.672;23.282;2023-03-05T06:38:37;94190.13;;;4.74;100.00
35989;BME280;22064;42.672;23.282;2023-03-05T06:41:05;94195.97;;;4.81;100.00
35989;BME280;22064;42.672;23.282;2023-03-05T06:43:32;94190.22;;;4.79;100.00
35989;BME280;22064;42.672;23.282;2023-03-05T06:46:02;94196.75;;;4.82;100.00
35989;BME280;22064;42.672;23.282;2023-03-05T06:48:29;94189.66;;;4.96;100.00
35989;BME280;22064;42.672;23.282;2023-03-05T06:50:55;94189.66;;;4.96;100.00
35989;BME280;22064;42.672;23.282;2023-03-05T06:53:22;94189.16;;;4.87;100.00
35989;BME280;22064;42.672;23.282;2023-03-05T06:55:49;94197.22;;;5.09;100.00
35989;BME280;22064;42.672;23.282;2023-03-05T06:58:15;94201.63;;;4.90;100.00
35989;BME280;22064;42.672;23.282;2023-03-05T07:00:42;94198.91;;;4.85;100.00
35989;BME280;22064;42.672;23.282;2023-03-05T07:03:08;94202.06;;;4.69;100.00
35989;BME280;22064;42.672;23.282;2023-03-05T07:05:40;94199.97;;;4.96;100.00
35989;BME280;22064;42.672;23.282;2023-03-05T07:08:06;94212.75;;;4.91;100.00
35989;BME280;22064;42.672;23.282;2023-03-05T07:10:39;94202.16;;;4.80;100.00
35989;BME280;22064;42.672;23.282;2023-03-05T07:13:07;94200.00;;;4.77;100.00
35989;BME280;22064;42.672;23.282;2023-03-05T07:15:33;94202.28;;;4.67;100.00
35989;BME280;22064;42.672;23.282;2023-03-05T07:18:01;94197.88;;;5.04;100.00
35989;BME280;22064;42.672;23.282;2023-03-05T07:20:27;94195.81;;;4.95;100.00
35989;BME280;22064;42.672;23.282;2023-03-05T07:22:54;94199.69;;;5.34;100.00
35989;BME280;22064;42.672;23.282;2023-03-05T07:25:20;94196.59;;;5.55;100.00
35989;BME280;22064;42.672;23.282;2023-03-05T07:27:47;94188.75;;;5.62;100.00
35989;BME280;22064;42.672;23.282;2023-03-05T07:30:14;94189.94;;;5.36;100.00
35989;BME280;22064;42.672;23.282;2023-03-05T07:32:40;94201.53;;;5.57;100.00
35989;BME280;22064;42.672;23.282;2023-03-05T07:35:06;94207.56;;;5.51;100.00
35989;BME280;22064;42.672;23.282;2023-03-05T07:37:32;94188.19;;;5.60;100.00
35989;BME280;22064;42.672;23.282;2023-03-05T07:39:58;94195.25;;;5.53;100.00
35989;BME280;22064;42.672;23.282;2023-03-05T07:42:24;94200.72;;;5.45;100.00
35989;BME280;22064;42.672;23.282;2023-03-05T07:45:01;94198.47;;;5.37;100.00
35989;BME280;22064;42.672;23.282;2023-03-05T07:47:27;94187.97;;;5.62;100.00
35989;BME280;22064;42.672;23.282;2023-03-05T07:49:53;94189.50;;;5.51;100.00
35989;BME280;22064;42.672;23.282;2023-03-05T07:52:19;94184.97;;;5.76;100.00
35989;BME280;22064;42.672;23.282;2023-03-05T07:54:45;94195.53;;;5.87;100.00
35989;BME280;22064;42.672;23.282;2023-03-05T07:57:11;94191.91;;;5.64;100.00
35989;BME280;22064;42.672;23.282;2023-03-05T07:59:38;94183.28;;;5.70;100.00
35989;BME280;22064;42.672;23.282;2023-03-05T08:02:04;94183.28;;;5.82;100.00
35989;BME280;22064;42.672;23.282;2023-03-05T08:04:30;94200.00;;;5.68;100.00
35989;BME280;22064;42.672;23.282;2023-03-05T08:06:57;94189.88;;;5.66;100.00
35989;BME280;22064;42.672;23.282;2023-03-05T08:09:23;94197.44;;;5.91;100.00
35989;BME280;22064;42.672;23.282;2023-03-05T08:11:49;94188.69;;;5.92;100.00
35989;BME280;22064;42.672;23.282;2023-03-05T08:14:15;94186.72;;;6.18;100.00
35989;BME280;22064;42.672;23.282;2023-03-05T08:16:42;94193.00;;;5.98;100.00
35989;BME280;22064;42.672;23.282;2023-03-05T08:19:09;94199.75;;;6.11;100.00
35989;BME280;22064;42.672;23.282;2023-03-05T08:21:36;94208.28;;;6.00;100.00
35989;BME280;22064;42.672;23.282;2023-03-05T08:24:04;94191.09;;;6.17;100.00
35989;BME280;22064;42.672;23.282;2023-03-05T08:26:35;94193.16;;;5.73;100.00
35989;BME280;22064;42.672;23.282;2023-03-05T08:29:03;94184.28;;;5.81;100.00
35989;BME280;22064;42.672;23.282;2023-03-05T08:31:30;94184.81;;;5.60;100.00
35989;BME280;22064;42.672;23.282;2023-03-05T08:33:58;94183.16;;;5.65;100.00
35989;BME280;22064;42.672;23.282;2023-03-05T08:36:25;94189.25;;;5.83;100.00
35989;BME280;22064;42.672;23.282;2023-03-05T08:38:51;94194.13;;;5.61;100.00
35989;BME280;22064;42.672;23.282;2023-03-05T08:41:17;94179.16;;;5.93;100.00
35989;BME280;22064;42.672;23.282;2023-03-05T08:43:43;94184.22;;;6.23;100.00
35989;BME280;22064;42.672;23.282;2023-03-05T08:46:11;94165.13;;;6.12;100.00
35989;BME280;22064;42.672;23.282;2023-03-05T08:48:37;94169.06;;;6.27;100.00
35989;BME280;22064;42.672;23.282;2023-03-05T08:51:05;94175.09;;;6.44;100.00
35989;BME280;22064;42.672;23.282;2023-03-05T08:53:31;94178.91;;;6.53;100.00
35989;BME280;22064;42.672;23.282;2023-03-05T08:55:57;94185.59;;;6.14;100.00
35989;BME280;22064;42.672;23.282;2023-03-05T08:58:23;94170.28;;;6.12;100.00
35989;BME280;22064;42.672;23.282;2023-03-05T09:00:50;94170.50;;;6.22;100.00
35989;BME280;22064;42.672;23.282;2023-03-05T09:03:16;94157.44;;;6.41;100.00
35989;BME280;22064;42.672;23.282;2023-03-05T09:05:42;94147.75;;;6.60;100.00
35989;BME280;22064;42.672;23.282;2023-03-05T09:08:08;94155.84;;;7.32;100.00
35989;BME280;22064;42.672;23.282;2023-03-05T09:10:34;94157.28;;;7.11;100.00
35989;BME280;22064;42.672;23.282;2023-03-05T09:13:00;94149.81;;;7.15;100.00
35989;BME280;22064;42.672;23.282;2023-03-05T09:15:29;94149.47;;;7.40;100.00
35989;BME280;22064;42.672;23.282;2023-03-05T09:17:55;94145.28;;;7.22;95.36
35989;BME280;22064;42.672;23.282;2023-03-05T09:20:23;94137.34;;;6.83;100.00
35989;BME280;22064;42.672;23.282;2023-03-05T09:22:48;94149.41;;;6.66;98.35
35989;BME280;22064;42.672;23.282;2023-03-05T09:25:14;94142.56;;;7.00;94.68
35989;BME280;22064;42.672;23.282;2023-03-05T09:27:40;94142.94;;;7.37;91.46
35989;BME280;22064;42.672;23.282;2023-03-05T09:30:10;94135.16;;;7.21;85.65
35989;BME280;22064;42.672;23.282;2023-03-05T09:32:37;94135.03;;;7.78;77.51
35989;BME280;22064;42.672;23.282;2023-03-05T09:35:03;94131.28;;;7.69;76.34
35989;BME280;22064;42.672;23.282;2023-03-05T09:37:29;94144.31;;;7.57;74.92
35989;BME280;22064;42.672;23.282;2023-03-05T09:39:56;94144.53;;;7.72;75.54
35989;BME280;22064;42.672;23.282;2023-03-05T09:48:20;94123.81;;;7.72;75.10
35989;BME280;22064;42.672;23.282;2023-03-05T09:50:57;94112.84;;;7.48;70.90
35989;BME280;22064;42.672;23.282;2023-03-05T09:53:38;94135.81;;;7.28;66.59
35989;BME280;22064;42.672;23.282;2023-03-05T09:56:19;94125.53;;;7.33;64.65
35989;BME280;22064;42.672;23.282;2023-03-05T09:58:51;94126.25;;;7.45;63.70
35989;BME280;22064;42.672;23.282;2023-03-05T10:01:22;94126.78;;;7.81;63.18
35989;BME280;22064;42.672;23.282;2023-03-05T10:03:58;94139.09;;;7.23;64.16
35989;BME280;22064;42.672;23.282;2023-03-05T10:06:42;94123.09;;;7.43;66.52
35989;BME280;22064;42.672;23.282;2023-03-05T10:09:47;94100.97;;;7.86;67.04
35989;BME280;22064;42.672;23.282;2023-03-05T10:15:20;94114.31;;;7.44;69.28
35989;BME280;22064;42.672;23.282;2023-03-05T10:23:30;94098.53;;;7.62;68.03
35989;BME280;22064;42.672;23.282;2023-03-05T10:26:39;94079.63;;;7.62;67.13
35989;BME280;22064;42.672;23.282;2023-03-05T10:29:35;94087.78;;;7.71;67.10
35989;BME280;22064;42.672;23.282;2023-03-05T10:35:16;94059.88;;;7.78;64.36
35989;BME280;22064;42.672;23.282;2023-03-05T10:45:51;94048.22;;;7.97;60.68
35989;BME280;22064;42.672;23.282;2023-03-05T10:48:44;94043.72;;;8.09;59.28
35989;BME280;22064;42.672;23.282;2023-03-05T10:51:40;94044.19;;;8.06;59.96
35989;BME280;22064;42.672;23.282;2023-03-05T10:54:22;94043.84;;;7.81;59.28
35989;BME280;22064;42.672;23.282;2023-03-05T10:57:04;94041.00;;;7.60;60.50
35989;BME280;22064;42.672;23.282;2023-03-05T10:59:42;94044.13;;;7.62;60.57
35989;BME280;22064;42.672;23.282;2023-03-05T11:02:08;94040.59;;;7.69;61.59
35989;BME280;22064;42.672;23.282;2023-03-05T11:04:37;94031.25;;;7.68;62.50
35989;BME280;22064;42.672;23.282;2023-03-05T11:09:33;94015.47;;;7.91;62.72
35989;BME280;22064;42.672;23.282;2023-03-05T11:12:18;94027.31;;;7.65;61.45
35989;BME280;22064;42.672;23.282;2023-03-05T11:17:40;94013.75;;;7.58;66.30
35989;BME280;22064;42.672;23.282;2023-03-05T11:23:22;94006.72;;;7.36;65.01
35989;BME280;22064;42.672;23.282;2023-03-05T11:28:32;93999.81;;;7.42;63.68
35989;BME280;22064;42.672;23.282;2023-03-05T11:33:26;93991.91;;;7.54;65.79
35989;BME280;22064;42.672;23.282;2023-03-05T11:36:10;93991.28;;;7.63;67.97
35989;BME280;22064;42.672;23.282;2023-03-05T11:44:09;93975.41;;;7.77;71.46
35989;BME280;22064;42.672;23.282;2023-03-05T11:46:40;93980.47;;;7.89;70.25
35989;BME280;22064;42.672;23.282;2023-03-05T11:49:07;93973.19;;;7.85;70.95
35989;BME280;22064;42.672;23.282;2023-03-05T11:51:42;93972.41;;;7.85;72.80
35989;BME280;22064;42.672;23.282;2023-03-05T11:54:14;93965.63;;;7.84;71.78
35989;BME280;22064;42.672;23.282;2023-03-05T11:56:42;93964.44;;;8.14;69.65
35989;BME280;22064;42.672;23.282;2023-03-05T11:59:18;93953.34;;;7.96;68.62
35989;BME280;22064;42.672;23.282;2023-03-05T12:01:50;93947.47;;;8.06;67.95
35989;BME280;22064;42.672;23.282;2023-03-05T12:04:17;93954.84;;;8.14;66.95
35989;BME280;22064;42.672;23.282;2023-03-05T12:06:59;93942.75;;;8.25;65.44
35989;BME280;22064;42.672;23.282;2023-03-05T12:09:44;93945.31;;;8.20;65.91
35989;BME280;22064;42.672;23.282;2023-03-05T12:12:34;93947.25;;;8.07;66.77
35989;BME280;22064;42.672;23.282;2023-03-05T12:20:41;93923.28;;;7.73;75.45
35989;BME280;22064;42.672;23.282;2023-03-05T12:23:17;93929.41;;;7.67;76.47
35989;BME280;22064;42.672;23.282;2023-03-05T12:25:49;93918.75;;;7.85;74.20
35989;BME280;22064;42.672;23.282;2023-03-05T12:33:36;93931.22;;;7.89;68.26
35989;BME280;22064;42.672;23.282;2023-03-05T12:38:51;93904.69;;;8.30;65.44
35989;BME280;22064;42.672;23.282;2023-03-05T12:46:35;93902.00;;;8.20;65.06
35989;BME280;22064;42.672;23.282;2023-03-05T12:51:45;93897.03;;;8.41;63.87
35989;BME280;22064;42.672;23.282;2023-03-05T12:54:31;93896.97;;;8.36;62.94
35989;BME280;22064;42.672;23.282;2023-03-05T12:57:01;93894.75;;;8.49;62.97
35989;BME280;22064;42.672;23.282;2023-03-05T12:59:39;93887.31;;;8.31;60.95
35989;BME280;22064;42.672;23.282;2023-03-05T13:04:44;93865.06;;;8.35;62.39
35989;BME280;22064;42.672;23.282;2023-03-05T13:07:15;93876.59;;;8.49;61.65
35989;BME280;22064;42.672;23.282;2023-03-05T13:09:56;93878.53;;;8.32;61.41
35989;BME280;22064;42.672;23.282;2023-03-05T13:12:24;93873.53;;;8.52;61.70
35989;BME280;22064;42.672;23.282;2023-03-05T13:14:58;93883.81;;;8.42;61.04
35989;BME280;22064;42.672;23.282;2023-03-05T13:25:29;93871.44;;;8.00;61.81
35989;BME280;22064;42.672;23.282;2023-03-05T13:28:03;93867.00;;;7.96;61.98
35989;BME280;22064;42.672;23.282;2023-03-05T13:30:30;93875.59;;;7.74;61.76
35989;BME280;22064;42.672;23.282;2023-03-05T13:32:59;93887.59;;;7.80;62.45
35989;BME280;22064;42.672;23.282;2023-03-05T13:35:30;93874.56;;;7.75;62.38
35989;BME280;22064;42.672;23.282;2023-03-05T13:37:56;93882.22;;;7.87;62.84
35989;BME280;22064;42.672;23.282;2023-03-05T13:40:29;93880.94;;;7.90;62.84
35989;BME280;22064;42.672;23.282;2023-03-05T13:43:08;93895.63;;;7.79;62.91
35989;BME280;22064;42.672;23.282;2023-03-05T13:45:36;93875.16;;;7.82;63.29
35989;BME280;22064;42.672;23.282;2023-03-05T13:48:05;93879.88;;;7.85;62.67
35989;BME280;22064;42.672;23.282;2023-03-05T13:50:39;93888.84;;;7.78;63.77
35989;BME280;22064;42.672;23.282;2023-03-05T13:53:21;93880.84;;;7.79;63.38
35989;BME280;22064;42.672;23.282;2023-03-05T13:55:49;93877.81;;;7.87;62.70
35989;BME280;22064;42.672;23.282;2023-03-05T14:01:26;93883.81;;;7.93;62.51
35989;BME280;22064;42.672;23.282;2023-03-05T14:03:55;93871.91;;;7.92;64.33
35989;BME280;22064;42.672;23.282;2023-03-05T14:06:24;93869.06;;;7.94;63.97
35989;BME280;22064;42.672;23.282;2023-03-05T14:08:56;93879.09;;;7.85;63.52
35989;BME280;22064;42.672;23.282;2023-03-05T14:11:26;93873.91;;;7.85;63.75
35989;BME280;22064;42.672;23.282;2023-03-05T14:14:01;93887.50;;;7.53;63.14
35989;BME280;22064;42.672;23.282;2023-03-05T14:16:30;93879.22;;;7.51;64.97
35989;BME280;22064;42.672;23.282;2023-03-05T14:19:01;93884.88;;;7.48;64.49
35989;BME280;22064;42.672;23.282;2023-03-05T14:21:46;93889.09;;;7.54;64.98
35989;BME280;22064;42.672;23.282;2023-03-05T14:24:23;93869.16;;;7.55;64.36
35989;BME280;22064;42.672;23.282;2023-03-05T14:26:52;93879.16;;;7.46;63.08
35989;BME280;22064;42.672;23.282;2023-03-05T14:29:21;93887.03;;;7.56;63.57